sensor_id;sensor_type;location;lat;lon;timestamp;temperature;humidity
20125;DHT22;10223;50.862;4.360;2023-02-15T00:01:31;10.00;99.90
20125;DHT22;10223;50.862;4.360;2023-02-15T00:03:58;9.90;99.90
20125;DHT22;10223;50.862;4.360;2023-02-15T00:06:25;10.00;99.90
20125;DHT22;10223;50.862;4.360;2023-02-15T00:08:54;10.00;99.90
20125;DHT22;10223;50.862;4.360;2023-02-15T00:11:21;10.00;99.90
20125;DHT22;10223;50.862;4.360;2023-02-15T00:14:04;9.90;99.90
20125;DHT22;10223;50.862;4.360;2023-02-15T00:16:31;10.00;99.90
20125;DHT22;10223;50.862;4.360;2023-02-15T00:18:58;10.10;99.90
20125;DHT22;10223;50.862;4.360;2023-02-15T00:21:27;10.10;99.90
20125;DHT22;10223;50.862;4.360;2023-02-15T00:23:55;10.20;99.90
20125;DHT22;10223;50.862;4.360;2023-02-15T00:26:22;10.10;99.90
20125;DHT22;10223;50.862;4.360;2023-02-15T00:28:49;10.00;99.90
20125;DHT22;10223;50.862;4.360;2023-02-15T00:31:17;10.00;99.90
20125;DHT22;10223;50.862;4.360;2023-02-15T00:33:44;10.00;99.90
20125;DHT22;10223;50.862;4.360;2023-02-15T00:36:11;9.90;99.90
20125;DHT22;10223;50.862;4.360;2023-02-15T00:38:38;10.00;99.90
20125;DHT22;10223;50.862;4.360;2023-02-15T00:41:07;10.00;99.90
20125;DHT22;10223;50.862;4.360;2023-02-15T00:43:35;10.20;99.90
20125;DHT22;10223;50.862;4.360;2023-02-15T00:46:03;9.90;99.90
20125;DHT22;10223;50.862;4.360;2023-02-15T00:48:32;9.70;99.90
20125;DHT22;10223;50.862;4.360;2023-02-15T00:50:59;9.80;99.90
20125;DHT22;10223;50.862;4.360;2023-02-15T00:53:28;9.80;99.90
20125;DHT22;10223;50.862;4.360;2023-02-15T00:55:55;10.00;99.90
20125;DHT22;10223;50.862;4.360;2023-02-15T00:58:22;10.00;99.90
20125;DHT22;10223;50.862;4.360;2023-02-15T01:00:49;9.80;99.90
20125;DHT22;10223;50.862;4.360;2023-02-15T01:03:17;10.00;99.90
20125;DHT22;10223;50.862;4.360;2023-02-15T01:05:47;10.10;99.90
20125;DHT22;10223;50.862;4.360;2023-02-15T01:08:14;10.10;99.90
20125;DHT22;10223;50.862;4.360;2023-02-15T01:10:41;10.10;99.90
20125;DHT22;10223;50.862;4.360;2023-02-15T01:13:09;10.10;99.90
20125;DHT22;10223;50.862;4.360;2023-02-15T01:15:36;10.10;99.90
20125;DHT22;10223;50.862;4.360;2023-02-15T01:18:03;10.00;99.90
20125;DHT22;10223;50.862;4.360;2023-02-15T01:20:33;9.90;99.90
20125;DHT22;10223;50.862;4.360;2023-02-15T01:23:02;9.90;99.90
20125;DHT22;10223;50.862;4.360;2023-02-15T01:25:29;9.80;99.90
20125;DHT22;10223;50.862;4.360;2023-02-15T01:27:56;9.90;99.90
20125;DHT22;10223;50.862;4.360;2023-02-15T01:30:23;9.90;99.90
20125;DHT22;10223;50.862;4.360;2023-02-15T01:32:50;9.80;99.90
20125;DHT22;10223;50.862;4.360;2023-02-15T01:35:16;9.80;99.90
20125;DHT22;10223;50.862;4.360;2023-02-15T01:37:43;10.00;99.90
20125;DHT22;10223;50.862;4.360;2023-02-15T01:40:15;10.20;99.90
20125;DHT22;10223;50.862;4.360;2023-02-15T01:42:42;10.30;99.90
20125;DHT22;10223;50.862;4.360;2023-02-15T01:45:19;10.20;99.90
20125;DHT22;10223;50.862;4.360;2023-02-15T01:47:50;10.00;99.90
20125;DHT22;10223;50.862;4.360;2023-02-15T01:50:20;9.80;99.90
20125;DHT22;10223;50.862;4.360;2023-02-15T01:52:50;9.60;99.90
20125;DHT22;10223;50.862;4.360;2023-02-15T01:55:21;9.50;99.90
20125;DHT22;10223;50.862;4.360;2023-02-15T01:57:49;9.50;99.90
20125;DHT22;10223;50.862;4.360;2023-02-15T02:00:18;9.40;99.90
20125;DHT22;10223;50.862;4.360;2023-02-15T02:02:47;9.50;99.90
20125;DHT22;10223;50.862;4.360;2023-02-15T02:05:15;9.50;99.90
20125;DHT22;10223;50.862;4.360;2023-02-15T02:07:44;9.60;99.90
20125;DHT22;10223;50.862;4.360;2023-02-15T02:10:14;9.50;99.90
20125;DHT22;10223;50.862;4.360;2023-02-15T02:12:45;9.50;99.90
20125;DHT22;10223;50.862;4.360;2023-02-15T02:15:13;9.60;99.90
20125;DHT22;10223;50.862;4.360;2023-02-15T02:17:49;9.60;99.90
20125;DHT22;10223;50.862;4.360;2023-02-15T02:20:41;9.70;99.90
20125;DHT22;10223;50.862;4.360;2023-02-15T02:23:22;9.60;99.90
20125;DHT22;10223;50.862;4.360;2023-02-15T02:26:28;9.70;99.90
20125;DHT22;10223;50.862;4.360;2023-02-15T02:35:12;9.20;99.90
20125;DHT22;10223;50.862;4.360;2023-02-15T02:37:48;9.20;99.90
20125;DHT22;10223;50.862;4.360;2023-02-15T02:40:24;9.30;99.90
20125;DHT22;10223;50.862;4.360;2023-02-15T02:42:58;9.20;99.90
20125;DHT22;10223;50.862;4.360;2023-02-15T02:45:30;9.10;99.90
20125;DHT22;10223;50.862;4.360;2023-02-15T02:48:02;9.20;99.90
20125;DHT22;10223;50.862;4.360;2023-02-15T02:50:31;9.20;99.90
20125;DHT22;10223;50.862;4.360;2023-02-15T02:52:59;9.00;99.90
20125;DHT22;10223;50.862;4.360;2023-02-15T02:55:30;9.10;99.90
20125;DHT22;10223;50.862;4.360;2023-02-15T02:58:02;9.10;99.90
20125;DHT22;10223;50.862;4.360;2023-02-15T03:00:34;9.00;99.90
20125;DHT22;10223;50.862;4.360;2023-02-15T03:03:05;9.10;99.90
20125;DHT22;10223;50.862;4.360;2023-02-15T03:05:37;9.00;99.90
20125;DHT22;10223;50.862;4.360;2023-02-15T03:08:07;9.10;99.90
20125;DHT22;10223;50.862;4.360;2023-02-15T03:10:36;9.20;99.90
20125;DHT22;10223;50.862;4.360;2023-02-15T03:13:03;9.30;99.90
20125;DHT22;10223;50.862;4.360;2023-02-15T03:15:33;9.40;99.90
20125;DHT22;10223;50.862;4.360;2023-02-15T03:18:16;9.00;99.90
20125;DHT22;10223;50.862;4.360;2023-02-15T03:20:46;8.60;99.90
20125;DHT22;10223;50.862;4.360;2023-02-15T03:23:17;8.50;99.90
20125;DHT22;10223;50.862;4.360;2023-02-15T03:25:48;8.50;99.90
20125;DHT22;10223;50.862;4.360;2023-02-15T03:28:20;8.50;99.90
20125;DHT22;10223;50.862;4.360;2023-02-15T03:30:52;8.40;99.90
20125;DHT22;10223;50.862;4.360;2023-02-15T03:33:21;8.50;99.90
20125;DHT22;10223;50.862;4.360;2023-02-15T03:35:54;8.70;99.90
20125;DHT22;10223;50.862;4.360;2023-02-15T03:38:27;8.80;99.90
20125;DHT22;10223;50.862;4.360;2023-02-15T03:40:58;8.70;99.90
20125;DHT22;10223;50.862;4.360;2023-02-15T03:43:43;9.00;99.90
20125;DHT22;10223;50.862;4.360;2023-02-15T03:46:17;8.90;99.90
20125;DHT22;10223;50.862;4.360;2023-02-15T03:48:50;8.90;99.90
20125;DHT22;10223;50.862;4.360;2023-02-15T03:51:22;9.00;99.90
20125;DHT22;10223;50.862;4.360;2023-02-15T03:54:07;9.10;99.90
20125;DHT22;10223;50.862;4.360;2023-02-15T03:56:36;8.90;99.90
20125;DHT22;10223;50.862;4.360;2023-02-15T03:59:03;8.60;99.90
20125;DHT22;10223;50.862;4.360;2023-02-15T04:01:57;8.40;99.90
20125;DHT22;10223;50.862;4.360;2023-02-15T04:04:33;8.70;99.90
20125;DHT22;10223;50.862;4.360;2023-02-15T04:07:04;8.80;99.90
20125;DHT22;10223;50.862;4.360;2023-02-15T04:09:31;8.70;99.90
20125;DHT22;10223;50.862;4.360;2023-02-15T04:12:15;8.40;99.90
20125;DHT22;10223;50.862;4.360;2023-02-15T04:14:42;8.40;99.90
20125;DHT22;10223;50.862;4.360;2023-02-15T04:17:27;8.50;99.90
20125;DHT22;10223;50.862;4.360;2023-02-15T04:19:54;8.60;99.90
20125;DHT22;10223;50.862;4.360;2023-02-15T04:22:39;8.70;99.90
20125;DHT22;10223;50.862;4.360;2023-02-15T04:25:24;8.80;99.90
20125;DHT22;10223;50.862;4.360;2023-02-15T04:27:53;8.80;99.90
20125;DHT22;10223;50.862;4.360;2023-02-15T04:30:21;8.80;99.90
20125;DHT22;10223;50.862;4.360;2023-02-15T04:32:48;8.70;99.90
20125;DHT22;10223;50.862;4.360;2023-02-15T04:35:15;8.60;99.90
20125;DHT22;10223;50.862;4.360;2023-02-15T04:37:44;8.50;99.90
20125;DHT22;10223;50.862;4.360;2023-02-15T04:40:13;8.40;99.90
20125;DHT22;10223;50.862;4.360;2023-02-15T04:42:40;8.20;99.90
20125;DHT22;10223;50.862;4.360;2023-02-15T04:45:08;8.10;99.90
20125;DHT22;10223;50.862;4.360;2023-02-15T04:47:35;8.00;99.90
20125;DHT22;10223;50.862;4.360;2023-02-15T04:50:02;8.00;99.90
20125;DHT22;10223;50.862;4.360;2023-02-15T04:52:29;8.00;99.90
20125;DHT22;10223;50.862;4.360;2023-02-15T04:54:57;8.10;99.90
20125;DHT22;10223;50.862;4.360;2023-02-15T04:57:24;8.10;99.90
20125;DHT22;10223;50.862;4.360;2023-02-15T04:59:51;8.20;99.90
20125;DHT22;10223;50.862;4.360;2023-02-15T05:02:18;8.20;99.90
20125;DHT22;10223;50.862;4.360;2023-02-15T05:04:45;8.30;99.90
20125;DHT22;10223;50.862;4.360;2023-02-15T05:07:11;8.20;99.90
20125;DHT22;10223;50.862;4.360;2023-02-15T05:09:40;8.30;99.90
20125;DHT22;10223;50.862;4.360;2023-02-15T05:12:08;8.40;99.90
20125;DHT22;10223;50.862;4.360;2023-02-15T05:14:35;8.50;99.90
20125;DHT22;10223;50.862;4.360;2023-02-15T05:17:02;8.40;99.90
20125;DHT22;10223;50.862;4.360;2023-02-15T05:19:31;8.20;99.90
20125;DHT22;10223;50.862;4.360;2023-02-15T05:21:57;8.10;99.90
20125;DHT22;10223;50.862;4.360;2023-02-15T05:24:24;8.00;99.90
20125;DHT22;10223;50.862;4.360;2023-02-15T05:27:12;8.20;99.90
20125;DHT22;10223;50.862;4.360;2023-02-15T05:29:56;8.10;99.90
20125;DHT22;10223;50.862;4.360;2023-02-15T05:32:23;8.00;99.90
20125;DHT22;10223;50.862;4.360;2023-02-15T05:34:50;8.20;99.90
20125;DHT22;10223;50.862;4.360;2023-02-15T05:37:16;8.20;99.90
20125;DHT22;10223;50.862;4.360;2023-02-15T05:39:43;8.40;99.90
20125;DHT22;10223;50.862;4.360;2023-02-15T05:42:12;8.20;99.90
20125;DHT22;10223;50.862;4.360;2023-02-15T05:44:38;8.20;99.90
20125;DHT22;10223;50.862;4.360;2023-02-15T05:47:05;8.20;99.90
20125;DHT22;10223;50.862;4.360;2023-02-15T05:49:33;8.20;99.90
20125;DHT22;10223;50.862;4.360;2023-02-15T05:52:00;8.10;99.90
20125;DHT22;10223;50.862;4.360;2023-02-15T05:54:27;8.20;99.90
20125;DHT22;10223;50.862;4.360;2023-02-15T05:56:54;8.30;99.90
20125;DHT22;10223;50.862;4.360;2023-02-15T05:59:22;8.30;99.90
20125;DHT22;10223;50.862;4.360;2023-02-15T06:01:49;8.10;99.90
20125;DHT22;10223;50.862;4.360;2023-02-15T06:04:17;8.00;99.90
20125;DHT22;10223;50.862;4.360;2023-02-15T06:06:44;8.00;99.90
20125;DHT22;10223;50.862;4.360;2023-02-15T06:09:11;8.10;99.90
20125;DHT22;10223;50.862;4.360;2023-02-15T06:11:38;7.90;99.90
20125;DHT22;10223;50.862;4.360;2023-02-15T06:14:05;7.90;99.90
20125;DHT22;10223;50.862;4.360;2023-02-15T06:16:33;7.80;99.90
20125;DHT22;10223;50.862;4.360;2023-02-15T06:19:00;7.90;99.90
20125;DHT22;10223;50.862;4.360;2023-02-15T06:21:28;7.80;99.90
20125;DHT22;10223;50.862;4.360;2023-02-15T06:23:55;7.70;99.90
20125;DHT22;10223;50.862;4.360;2023-02-15T06:26:21;7.60;99.90
20125;DHT22;10223;50.862;4.360;2023-02-15T06:28:48;7.60;99.90
20125;DHT22;10223;50.862;4.360;2023-02-15T06:31:15;7.60;99.90
20125;DHT22;10223;50.862;4.360;2023-02-15T06:33:43;7.80;99.90
20125;DHT22;10223;50.862;4.360;2023-02-15T06:36:10;7.80;99.90
20125;DHT22;10223;50.862;4.360;2023-02-15T06:38:38;7.60;99.90
20125;DHT22;10223;50.862;4.360;2023-02-15T06:41:04;7.60;99.90
20125;DHT22;10223;50.862;4.360;2023-02-15T06:43:31;7.70;99.90
20125;DHT22;10223;50.862;4.360;2023-02-15T06:45:59;7.60;99.90
20125;DHT22;10223;50.862;4.360;2023-02-15T06:48:26;7.50;99.90
20125;DHT22;10223;50.862;4.360;2023-02-15T06:50:54;7.50;99.90
20125;DHT22;10223;50.862;4.360;2023-02-15T06:53:21;7.50;99.90
20125;DHT22;10223;50.862;4.360;2023-02-15T06:55:48;7.60;99.90
20125;DHT22;10223;50.862;4.360;2023-02-15T06:58:15;7.60;99.90
20125;DHT22;10223;50.862;4.360;2023-02-15T07:00:42;7.60;99.90
20125;DHT22;10223;50.862;4.360;2023-02-15T07:03:09;7.70;99.90
20125;DHT22;10223;50.862;4.360;2023-02-15T07:05:36;7.60;99.90
20125;DHT22;10223;50.862;4.360;2023-02-15T07:08:04;7.70;99.90
20125;DHT22;10223;50.862;4.360;2023-02-15T07:10:31;7.90;99.90
20125;DHT22;10223;50.862;4.360;2023-02-15T07:12:57;7.80;99.90
20125;DHT22;10223;50.862;4.360;2023-02-15T07:15:23;8.00;99.90
20125;DHT22;10223;50.862;4.360;2023-02-15T07:17:50;8.00;99.90
20125;DHT22;10223;50.862;4.360;2023-02-15T07:20:19;8.10;99.90
20125;DHT22;10223;50.862;4.360;2023-02-15T07:22:46;8.00;99.90
20125;DHT22;10223;50.862;4.360;2023-02-15T07:25:14;8.20;99.90
20125;DHT22;10223;50.862;4.360;2023-02-15T07:27:41;8.40;99.90
20125;DHT22;10223;50.862;4.360;2023-02-15T07:30:11;8.60;99.90
20125;DHT22;10223;50.862;4.360;2023-02-15T07:32:38;8.60;99.90
20125;DHT22;10223;50.862;4.360;2023-02-15T07:35:25;8.70;99.90
20125;DHT22;10223;50.862;4.360;2023-02-15T07:37:53;9.10;99.90
20125;DHT22;10223;50.862;4.360;2023-02-15T07:40:21;9.30;99.90
20125;DHT22;10223;50.862;4.360;2023-02-15T07:42:49;9.20;99.90
20125;DHT22;10223;50.862;4.360;2023-02-15T07:45:18;9.10;99.90
20125;DHT22;10223;50.862;4.360;2023-02-15T07:47:45;8.90;99.90
20125;DHT22;10223;50.862;4.360;2023-02-15T07:50:13;9.00;99.90
20125;DHT22;10223;50.862;4.360;2023-02-15T07:52:40;9.30;99.90
20125;DHT22;10223;50.862;4.360;2023-02-15T07:55:07;9.40;99.90
20125;DHT22;10223;50.862;4.360;2023-02-15T07:57:35;9.30;99.90
20125;DHT22;10223;50.862;4.360;2023-02-15T08:00:03;9.50;99.90
20125;DHT22;10223;50.862;4.360;2023-02-15T08:02:30;9.50;99.90
20125;DHT22;10223;50.862;4.360;2023-02-15T08:04:57;9.70;99.90
20125;DHT22;10223;50.862;4.360;2023-02-15T08:07:24;9.60;99.90
20125;DHT22;10223;50.862;4.360;2023-02-15T08:09:51;9.80;99.90
20125;DHT22;10223;50.862;4.360;2023-02-15T08:12:19;9.80;99.90
20125;DHT22;10223;50.862;4.360;2023-02-15T08:14:47;9.60;99.90
20125;DHT22;10223;50.862;4.360;2023-02-15T08:17:14;9.60;99.90
20125;DHT22;10223;50.862;4.360;2023-02-15T08:19:41;9.90;99.90
20125;DHT22;10223;50.862;4.360;2023-02-15T08:22:12;10.10;99.90
20125;DHT22;10223;50.862;4.360;2023-02-15T08:24:39;10.20;99.90
20125;DHT22;10223;50.862;4.360;2023-02-15T08:27:08;10.10;99.90
20125;DHT22;10223;50.862;4.360;2023-02-15T08:29:36;10.20;99.90
20125;DHT22;10223;50.862;4.360;2023-02-15T08:32:07;10.30;99.90
20125;DHT22;10223;50.862;4.360;2023-02-15T08:34:36;10.40;99.90
20125;DHT22;10223;50.862;4.360;2023-02-15T08:37:04;10.60;99.90
20125;DHT22;10223;50.862;4.360;2023-02-15T08:39:31;10.70;99.90
20125;DHT22;10223;50.862;4.360;2023-02-15T08:41:58;10.80;99.90
20125;DHT22;10223;50.862;4.360;2023-02-15T08:44:26;10.60;99.90
20125;DHT22;10223;50.862;4.360;2023-02-15T08:46:53;10.40;99.90
20125;DHT22;10223;50.862;4.360;2023-02-15T08:49:21;10.40;99.90
20125;DHT22;10223;50.862;4.360;2023-02-15T08:51:49;10.60;99.90
20125;DHT22;10223;50.862;4.360;2023-02-15T08:54:18;10.60;99.90
20125;DHT22;10223;50.862;4.360;2023-02-15T08:56:46;10.90;99.90
20125;DHT22;10223;50.862;4.360;2023-02-15T08:59:15;11.10;99.90
20125;DHT22;10223;50.862;4.360;2023-02-15T09:01:42;11.00;99.90
20125;DHT22;10223;50.862;4.360;2023-02-15T09:04:09;11.30;99.90
20125;DHT22;10223;50.862;4.360;2023-02-15T09:06:38;11.30;99.90
20125;DHT22;10223;50.862;4.360;2023-02-15T09:09:06;11.30;99.90
20125;DHT22;10223;50.862;4.360;2023-02-15T09:11:36;11.10;99.90
20125;DHT22;10223;50.862;4.360;2023-02-15T09:14:04;11.30;99.90
20125;DHT22;10223;50.862;4.360;2023-02-15T09:16:35;11.50;99.90
20125;DHT22;10223;50.862;4.360;2023-02-15T09:19:03;11.30;99.90
20125;DHT22;10223;50.862;4.360;2023-02-15T09:21:31;11.50;99.90
20125;DHT22;10223;50.862;4.360;2023-02-15T09:24:02;11.40;99.90
20125;DHT22;10223;50.862;4.360;2023-02-15T09:26:31;11.20;99.90
20125;DHT22;10223;50.862;4.360;2023-02-15T09:28:59;11.30;99.90
20125;DHT22;10223;50.862;4.360;2023-02-15T09:31:30;11.50;99.90
20125;DHT22;10223;50.862;4.360;2023-02-15T09:33:58;11.30;99.90
20125;DHT22;10223;50.862;4.360;2023-02-15T09:36:27;11.30;99.90
20125;DHT22;10223;50.862;4.360;2023-02-15T09:38:56;11.60;99.90
20125;DHT22;10223;50.862;4.360;2023-02-15T09:41:41;11.70;99.90
20125;DHT22;10223;50.862;4.360;2023-02-15T09:44:17;12.00;99.90
20125;DHT22;10223;50.862;4.360;2023-02-15T09:47:03;11.50;99.90
20125;DHT22;10223;50.862;4.360;2023-02-15T09:49:39;11.80;99.90
20125;DHT22;10223;50.862;4.360;2023-02-15T09:52:35;12.20;99.90
20125;DHT22;10223;50.862;4.360;2023-02-15T09:55:35;12.80;99.90
20125;DHT22;10223;50.862;4.360;2023-02-15T09:58:12;12.50;99.90
20125;DHT22;10223;50.862;4.360;2023-02-15T10:00:48;12.30;99.90
20125;DHT22;10223;50.862;4.360;2023-02-15T10:03:31;12.20;99.90
20125;DHT22;10223;50.862;4.360;2023-02-15T10:06:26;12.10;99.90
20125;DHT22;10223;50.862;4.360;2023-02-15T10:09:03;11.90;99.90
20125;DHT22;10223;50.862;4.360;2023-02-15T10:11:47;12.00;99.90
20125;DHT22;10223;50.862;4.360;2023-02-15T10:14:31;12.00;99.90
20125;DHT22;10223;50.862;4.360;2023-02-15T10:17:12;12.20;99.90
20125;DHT22;10223;50.862;4.360;2023-02-15T10:19:46;12.60;99.90
20125;DHT22;10223;50.862;4.360;2023-02-15T10:22:24;12.70;99.90
20125;DHT22;10223;50.862;4.360;2023-02-15T10:25:05;13.10;99.90
20125;DHT22;10223;50.862;4.360;2023-02-15T10:27:44;13.00;99.90
20125;DHT22;10223;50.862;4.360;2023-02-15T10:30:14;12.80;99.90
20125;DHT22;10223;50.862;4.360;2023-02-15T10:32:49;13.20;99.90
20125;DHT22;10223;50.862;4.360;2023-02-15T10:35:24;13.40;99.90
20125;DHT22;10223;50.862;4.360;2023-02-15T10:38:08;13.60;99.90
20125;DHT22;10223;50.862;4.360;2023-02-15T10:40:44;13.20;99.90
20125;DHT22;10223;50.862;4.360;2023-02-15T10:43:29;12.90;99.90
20125;DHT22;10223;50.862;4.360;2023-02-15T10:46:08;12.50;99.90
20125;DHT22;10223;50.862;4.360;2023-02-15T10:49:03;12.60;99.90
20125;DHT22;10223;50.862;4.360;2023-02-15T10:51:40;12.70;99.90
20125;DHT22;10223;50.862;4.360;2023-02-15T10:54:24;12.80;99.90
20125;DHT22;10223;50.862;4.360;2023-02-15T10:56:59;12.70;99.90
20125;DHT22;10223;50.862;4.360;2023-02-15T10:59:43;12.40;99.90
20125;DHT22;10223;50.862;4.360;2023-02-15T11:02:23;12.40;99.90
20125;DHT22;10223;50.862;4.360;2023-02-15T11:04:55;12.00;99.90
20125;DHT22;10223;50.862;4.360;2023-02-15T11:07:26;12.10;99.90
20125;DHT22;10223;50.862;4.360;2023-02-15T11:10:02;12.10;99.90
20125;DHT22;10223;50.862;4.360;2023-02-15T11:12:33;12.00;99.90
20125;DHT22;10223;50.862;4.360;2023-02-15T11:15:02;11.80;99.90
20125;DHT22;10223;50.862;4.360;2023-02-15T11:17:36;11.90;99.90
20125;DHT22;10223;50.862;4.360;2023-02-15T11:20:14;12.20;99.90
20125;DHT22;10223;50.862;4.360;2023-02-15T11:22:47;12.40;99.90
20125;DHT22;10223;50.862;4.360;2023-02-15T11:25:18;12.70;99.90
20125;DHT22;10223;50.862;4.360;2023-02-15T11:27:46;12.40;99.90
20125;DHT22;10223;50.862;4.360;2023-02-15T11:30:17;12.60;99.90
20125;DHT22;10223;50.862;4.360;2023-02-15T11:32:49;12.60;99.90
20125;DHT22;10223;50.862;4.360;2023-02-15T11:35:22;12.60;99.90
20125;DHT22;10223;50.862;4.360;2023-02-15T11:37:54;12.40;99.90
20125;DHT22;10223;50.862;4.360;2023-02-15T11:40:26;12.70;99.90
20125;DHT22;10223;50.862;4.360;2023-02-15T11:42:56;13.00;99.90
20125;DHT22;10223;50.862;4.360;2023-02-15T11:45:26;13.20;99.90
20125;DHT22;10223;50.862;4.360;2023-02-15T11:47:56;13.30;99.90
20125;DHT22;10223;50.862;4.360;2023-02-15T11:50:25;13.00;99.90
20125;DHT22;10223;50.862;4.360;2023-02-15T11:52:56;13.20;99.90
20125;DHT22;10223;50.862;4.360;2023-02-15T11:55:24;13.40;99.90
20125;DHT22;10223;50.862;4.360;2023-02-15T11:57:54;13.90;99.90
20125;DHT22;10223;50.862;4.360;2023-02-15T12:00:31;14.10;99.90
20125;DHT22;10223;50.862;4.360;2023-02-15T12:03:10;14.20;99.90
20125;DHT22;10223;50.862;4.360;2023-02-15T12:05:42;13.80;99.90
20125;DHT22;10223;50.862;4.360;2023-02-15T12:08:15;13.80;99.90
20125;DHT22;10223;50.862;4.360;2023-02-15T12:10:51;13.90;99.90
20125;DHT22;10223;50.862;4.360;2023-02-15T12:13:22;13.90;99.90
20125;DHT22;10223;50.862;4.360;2023-02-15T12:15:52;14.00;99.90
20125;DHT22;10223;50.862;4.360;2023-02-15T12:18:36;14.10;99.90
20125;DHT22;10223;50.862;4.360;2023-02-15T12:21:07;13.90;99.90
20125;DHT22;10223;50.862;4.360;2023-02-15T12:23:39;13.90;99.90
20125;DHT22;10223;50.862;4.360;2023-02-15T12:26:07;13.80;99.90
20125;DHT22;10223;50.862;4.360;2023-02-15T12:28:36;13.50;99.90
20125;DHT22;10223;50.862;4.360;2023-02-15T12:31:09;13.50;99.90
20125;DHT22;10223;50.862;4.360;2023-02-15T12:33:45;13.20;99.90
20125;DHT22;10223;50.862;4.360;2023-02-15T12:36:17;12.90;99.90
20125;DHT22;10223;50.862;4.360;2023-02-15T12:39:03;12.90;99.90
20125;DHT22;10223;50.862;4.360;2023-02-15T12:41:31;13.10;99.90
20125;DHT22;10223;50.862;4.360;2023-02-15T12:44:07;13.10;99.90
20125;DHT22;10223;50.862;4.360;2023-02-15T12:46:41;13.50;99.90
20125;DHT22;10223;50.862;4.360;2023-02-15T12:49:18;13.90;99.90
20125;DHT22;10223;50.862;4.360;2023-02-15T12:51:47;14.10;99.90
20125;DHT22;10223;50.862;4.360;2023-02-15T12:54:36;14.10;99.90
20125;DHT22;10223;50.862;4.360;2023-02-15T12:57:30;14.60;99.90
20125;DHT22;10223;50.862;4.360;2023-02-15T12:59:59;15.10;99.90
20125;DHT22;10223;50.862;4.360;2023-02-15T13:02:29;15.80;99.90
20125;DHT22;10223;50.862;4.360;2023-02-15T13:05:14;16.20;99.90
20125;DHT22;10223;50.862;4.360;2023-02-15T13:07:45;15.50;99.90
20125;DHT22;10223;50.862;4.360;2023-02-15T13:10:21;15.00;99.90
20125;DHT22;10223;50.862;4.360;2023-02-15T13:12:50;15.00;99.90
20125;DHT22;10223;50.862;4.360;2023-02-15T13:15:30;15.30;99.90
20125;DHT22;10223;50.862;4.360;2023-02-15T13:17:58;15.70;99.90
20125;DHT22;10223;50.862;4.360;2023-02-15T13:20:28;15.40;99.90
20125;DHT22;10223;50.862;4.360;2023-02-15T13:22:58;15.50;99.90
20125;DHT22;10223;50.862;4.360;2023-02-15T13:25:28;15.60;99.90
20125;DHT22;10223;50.862;4.360;2023-02-15T13:28:00;15.70;99.90
20125;DHT22;10223;50.862;4.360;2023-02-15T13:30:31;15.10;99.90
20125;DHT22;10223;50.862;4.360;2023-02-15T13:33:04;15.30;99.90
20125;DHT22;10223;50.862;4.360;2023-02-15T13:35:39;15.20;99.90
20125;DHT22;10223;50.862;4.360;2023-02-15T13:38:21;15.00;99.90
20125;DHT22;10223;50.862;4.360;2023-02-15T13:40:53;15.30;99.90
20125;DHT22;10223;50.862;4.360;2023-02-15T13:43:39;15.00;99.90
20125;DHT22;10223;50.862;4.360;2023-02-15T13:46:19;15.10;99.90
20125;DHT22;10223;50.862;4.360;2023-02-15T13:48:56;14.80;99.90
20125;DHT22;10223;50.862;4.360;2023-02-15T13:51:34;14.80;99.90
20125;DHT22;10223;50.862;4.360;2023-02-15T13:54:24;14.80;99.90
20125;DHT22;10223;50.862;4.360;2023-02-15T13:57:05;14.60;99.90
20125;DHT22;10223;50.862;4.360;2023-02-15T13:59:46;14.80;99.90
20125;DHT22;10223;50.862;4.360;2023-02-15T14:02:42;14.80;99.90
20125;DHT22;10223;50.862;4.360;2023-02-15T14:05:40;15.10;99.90
20125;DHT22;10223;50.862;4.360;2023-02-15T14:08:21;14.80;99.90
20125;DHT22;10223;50.862;4.360;2023-02-15T14:10:59;14.60;99.90
20125;DHT22;10223;50.862;4.360;2023-02-15T14:16:40;14.70;99.90
20125;DHT22;10223;50.862;4.360;2023-02-15T14:19:16;14.70;99.90
20125;DHT22;10223;50.862;4.360;2023-02-15T14:21:48;14.60;99.90
20125;DHT22;10223;50.862;4.360;2023-02-15T14:24:27;14.50;99.90
20125;DHT22;10223;50.862;4.360;2023-02-15T14:27:03;14.50;99.90
20125;DHT22;10223;50.862;4.360;2023-02-15T14:29:45;14.40;99.90
20125;DHT22;10223;50.862;4.360;2023-02-15T14:32:19;14.50;99.90
20125;DHT22;10223;50.862;4.360;2023-02-15T14:34:50;14.70;99.90
20125;DHT22;10223;50.862;4.360;2023-02-15T14:37:24;14.40;99.90
20125;DHT22;10223;50.862;4.360;2023-02-15T14:40:00;14.80;99.90
20125;DHT22;10223;50.862;4.360;2023-02-15T14:42:53;14.70;99.90
20125;DHT22;10223;50.862;4.360;2023-02-15T14:45:26;14.60;99.90
20125;DHT22;10223;50.862;4.360;2023-02-15T14:48:03;14.30;99.90
20125;DHT22;10223;50.862;4.360;2023-02-15T14:50:42;14.30;99.90
20125;DHT22;10223;50.862;4.360;2023-02-15T14:53:22;14.30;99.90
20125;DHT22;10223;50.862;4.360;2023-02-15T14:56:23;14.40;99.90
20125;DHT22;10223;50.862;4.360;2023-02-15T14:59:13;14.30;99.90
20125;DHT22;10223;50.862;4.360;2023-02-15T15:01:52;14.30;99.90
20125;DHT22;10223;50.862;4.360;2023-02-15T15:04:29;14.20;99.90
20125;DHT22;10223;50.862;4.360;2023-02-15T15:07:07;14.10;99.90
20125;DHT22;10223;50.862;4.360;2023-02-15T15:09:37;14.10;99.90
20125;DHT22;10223;50.862;4.360;2023-02-15T15:12:38;14.10;99.90
20125;DHT22;10223;50.862;4.360;2023-02-15T15:15:06;14.10;99.90
20125;DHT22;10223;50.862;4.360;2023-02-15T15:17:53;14.00;99.90
20125;DHT22;10223;50.862;4.360;2023-02-15T15:20:41;13.90;99.90
20125;DHT22;10223;50.862;4.360;2023-02-15T15:26:27;13.90;99.90
20125;DHT22;10223;50.862;4.360;2023-02-15T15:28:58;13.60;99.90
20125;DHT22;10223;50.862;4.360;2023-02-15T15:31:35;13.40;99.90
20125;DHT22;10223;50.862;4.360;2023-02-15T15:34:35;13.50;99.90
20125;DHT22;10223;50.862;4.360;2023-02-15T15:40:55;13.40;99.90
20125;DHT22;10223;50.862;4.360;2023-02-15T15:46:34;13.10;99.90
20125;DHT22;10223;50.862;4.360;2023-02-15T15:49:08;13.10;99.90
20125;DHT22;10223;50.862;4.360;2023-02-15T15:51:40;13.10;99.90
20125;DHT22;10223;50.862;4.360;2023-02-15T15:54:14;13.10;99.90
20125;DHT22;10223;50.862;4.360;2023-02-15T15:56:44;13.00;99.90
20125;DHT22;10223;50.862;4.360;2023-02-15T15:59:18;13.00;99.90
20125;DHT22;10223;50.862;4.360;2023-02-15T16:01:49;12.90;99.90
20125;DHT22;10223;50.862;4.360;2023-02-15T16:04:25;12.70;99.90
20125;DHT22;10223;50.862;4.360;2023-02-15T16:06:52;12.70;99.90
20125;DHT22;10223;50.862;4.360;2023-02-15T16:09:21;12.80;99.90
20125;DHT22;10223;50.862;4.360;2023-02-15T16:11:51;12.80;99.90
20125;DHT22;10223;50.862;4.360;2023-02-15T16:14:25;12.90;99.90
20125;DHT22;10223;50.862;4.360;2023-02-15T16:16:56;12.60;99.90
20125;DHT22;10223;50.862;4.360;2023-02-15T16:19:26;12.60;99.90
20125;DHT22;10223;50.862;4.360;2023-02-15T16:21:55;12.60;99.90
20125;DHT22;10223;50.862;4.360;2023-02-15T16:24:45;12.60;99.90
20125;DHT22;10223;50.862;4.360;2023-02-15T16:27:26;12.70;99.90
20125;DHT22;10223;50.862;4.360;2023-02-15T16:29:56;12.60;99.90